createdAt,value
2022-12-14T00:01:49.366Z,-3.33
2022-12-14T00:04:17.668Z,-3.28
2022-12-14T00:06:45.494Z,-3.27
2022-12-14T00:09:13.055Z,-3.30
2022-12-14T00:11:40.571Z,-3.35
2022-12-14T00:14:08.132Z,-3.50
2022-12-14T00:16:35.942Z,-3.55
2022-12-14T00:19:05.590Z,-3.63
2022-12-14T00:21:34.053Z,-3.88
2022-12-14T00:24:01.660Z,-3.92
2022-12-14T00:26:31.871Z,-3.84
2022-12-14T00:29:01.302Z,-3.90
2022-12-14T00:31:29.599Z,-3.84
2022-12-14T00:33:57.267Z,-3.90
2022-12-14T00:36:26.172Z,-3.87
2022-12-14T00:38:53.765Z,-3.82
2022-12-14T00:41:21.268Z,-3.80
2022-12-14T00:43:49.288Z,-3.69
2022-12-14T00:46:17.615Z,-3.62
2022-12-14T00:48:45.169Z,-3.56
2022-12-14T00:51:14.576Z,-3.53
2022-12-14T00:53:45.187Z,-3.54
2022-12-14T00:56:12.739Z,-3.59
2022-12-14T00:58:40.296Z,-3.54
2022-12-14T01:01:12.229Z,-3.53
2022-12-14T01:03:40.034Z,-3.53
2022-12-14T01:06:13.533Z,-3.60
2022-12-14T01:08:41.062Z,-3.65
2022-12-14T01:11:11.280Z,-3.58
2022-12-14T01:13:39.869Z,-3.62
2022-12-14T01:16:09.930Z,-3.61
2022-12-14T01:18:39.425Z,-3.59
2022-12-14T01:21:11.826Z,-3.61
2022-12-14T01:23:39.389Z,-3.79
2022-12-14T01:26:06.931Z,-3.76
2022-12-14T01:28:35.912Z,-3.95
2022-12-14T01:31:07.346Z,-3.95
2022-12-14T01:33:34.987Z,-3.88
2022-12-14T01:36:06.123Z,-3.80
2022-12-14T01:38:33.671Z,-3.90
2022-12-14T01:41:01.683Z,-3.88
2022-12-14T01:43:49.344Z,-3.93
2022-12-14T01:46:22.237Z,-3.95
2022-12-14T01:48:52.135Z,-3.97
2022-12-14T01:51:19.908Z,-3.96
2022-12-14T01:53:47.920Z,-4.00
2022-12-14T01:56:16.426Z,-3.97
2022-12-14T01:58:43.910Z,-4.04
2022-12-14T02:01:12.847Z,-3.96
2022-12-14T02:03:45.675Z,-3.96
2022-12-14T02:06:18.625Z,-3.95
2022-12-14T02:08:48.999Z,-4.08
2022-12-14T02:11:23.953Z,-4.22
2022-12-14T02:13:51.449Z,-4.15
2022-12-14T02:16:20.460Z,-4.20
2022-12-14T02:18:48.007Z,-4.22
2022-12-14T02:21:23.703Z,-4.26
2022-12-14T02:24:14.783Z,-4.30
2022-12-14T02:27:05.362Z,-4.28
2022-12-14T02:30:06.420Z,-4.38
2022-12-14T02:33:15.353Z,-4.38
2022-12-14T02:35:48.616Z,-4.45
2022-12-14T02:38:28.877Z,-4.60
2022-12-14T02:41:07.077Z,-4.48
2022-12-14T02:43:44.127Z,-4.42
2022-12-14T02:46:23.073Z,-4.40
2022-12-14T02:48:58.116Z,-4.31
2022-12-14T02:51:37.035Z,-4.31
2022-12-14T02:54:10.614Z,-4.31
2022-12-14T02:56:44.738Z,-4.28
2022-12-14T02:59:12.998Z,-4.25
2022-12-14T03:01:43.481Z,-4.25
2022-12-14T03:04:15.651Z,-4.34
2022-12-14T03:06:58.762Z,-4.27
2022-12-14T03:09:28.207Z,-4.32
2022-12-14T03:11:58.398Z,-4.38
2022-12-14T03:14:28.569Z,-4.51
2022-12-14T03:17:05.166Z,-4.36
2022-12-14T03:19:38.206Z,-4.35
2022-12-14T03:22:10.808Z,-4.35
2022-12-14T03:24:42.153Z,-4.88
2022-12-14T03:27:13.952Z,-4.94
2022-12-14T03:29:46.731Z,-4.78
2022-12-14T03:32:19.796Z,-4.74
2022-12-14T03:34:56.758Z,-4.75
2022-12-14T03:37:31.444Z,-4.67
2022-12-14T03:39:59.499Z,-4.75
2022-12-14T03:42:33.032Z,-4.70
2022-12-14T03:45:05.180Z,-4.67
2022-12-14T03:47:50.767Z,-4.78
2022-12-14T03:50:23.933Z,-4.80
2022-12-14T03:52:57.746Z,-4.74
2022-12-14T03:55:30.429Z,-4.78
2022-12-14T03:58:19.870Z,-4.77
2022-12-14T04:00:55.257Z,-4.87
2022-12-14T04:03:30.554Z,-4.78
2022-12-14T04:06:04.371Z,-4.80
2022-12-14T04:08:39.971Z,-4.70
2022-12-14T04:11:28.281Z,-4.81
2022-12-14T04:14:20.854Z,-4.89
2022-12-14T04:17:09.684Z,-4.79
2022-12-14T04:19:45.245Z,-4.77
2022-12-14T04:22:19.491Z,-4.84
2022-12-14T04:25:11.702Z,-4.95
2022-12-14T04:27:43.940Z,-5.04
2022-12-14T04:30:13.006Z,-5.02
2022-12-14T04:32:43.632Z,-5.00
2022-12-14T04:35:17.507Z,-5.03
2022-12-14T04:37:50.762Z,-5.08
2022-12-14T04:40:21.665Z,-5.09
2022-12-14T04:42:55.042Z,-5.26
2022-12-14T04:45:27.577Z,-5.37
2022-12-14T04:48:00.728Z,-5.37
2022-12-14T04:50:34.725Z,-5.29
2022-12-14T04:53:07.607Z,-5.24
2022-12-14T04:55:40.390Z,-5.28
2022-12-14T04:58:14.178Z,-5.31
2022-12-14T05:00:59.309Z,-5.23
2022-12-14T05:03:31.603Z,-5.21
2022-12-14T05:06:09.961Z,-5.17
2022-12-14T05:09:04.027Z,-5.18
2022-12-14T05:14:32.715Z,-5.15
2022-12-14T05:17:04.964Z,-5.22
2022-12-14T05:19:35.874Z,-5.20
2022-12-14T05:22:08.745Z,-5.15
2022-12-14T05:24:36.341Z,-5.16
2022-12-14T05:27:03.984Z,-5.14
2022-12-14T05:29:31.557Z,-5.16
2022-12-14T05:31:59.194Z,-5.01
2022-12-14T05:34:26.779Z,-5.14
2022-12-14T05:36:54.421Z,-5.53
2022-12-14T05:39:23.368Z,-5.74
2022-12-14T05:41:50.915Z,-5.78
2022-12-14T05:44:18.453Z,-5.70
2022-12-14T05:46:46.022Z,-5.80
2022-12-14T05:49:13.690Z,-5.75
2022-12-14T05:51:41.470Z,-5.66
2022-12-14T05:54:09.153Z,-5.67
2022-12-14T05:56:38.006Z,-5.49
2022-12-14T05:59:05.507Z,-5.49
2022-12-14T06:01:33.074Z,-5.56
2022-12-14T06:04:00.711Z,-5.69
2022-12-14T06:06:28.269Z,-5.82
2022-12-14T06:08:55.787Z,-5.65
2022-12-14T06:11:24.406Z,-5.56
2022-12-14T06:13:53.293Z,-5.55
2022-12-14T06:16:22.987Z,-5.43
2022-12-14T06:18:52.812Z,-5.31
2022-12-14T06:21:23.903Z,-5.33
2022-12-14T06:23:51.474Z,-5.28
2022-12-14T06:26:19.658Z,-5.26
2022-12-14T06:28:47.352Z,-5.39
2022-12-14T06:31:18.806Z,-5.35
2022-12-14T06:33:46.615Z,-5.32
2022-12-14T06:36:19.202Z,-5.22
2022-12-14T06:38:47.070Z,-5.26
2022-12-14T06:41:14.627Z,-5.29
2022-12-14T06:43:42.252Z,-5.24
2022-12-14T06:46:15.166Z,-5.23
2022-12-14T06:48:45.318Z,-5.21
2022-12-14T06:51:12.897Z,-5.21
2022-12-14T06:53:40.490Z,-5.35
2022-12-14T06:56:09.531Z,-5.41
2022-12-14T06:58:37.658Z,-5.36
2022-12-14T07:01:07.392Z,-5.39
2022-12-14T07:03:36.002Z,-5.39
2022-12-14T07:06:05.990Z,-5.39
2022-12-14T07:08:36.374Z,-5.33
2022-12-14T07:11:05.378Z,-5.23
2022-12-14T07:13:32.987Z,-5.33
2022-12-14T07:16:01.654Z,-5.30
2022-12-14T07:18:30.305Z,-5.33
2022-12-14T07:20:58.895Z,-5.35
2022-12-14T07:23:29.711Z,-5.43
2022-12-14T07:26:02.179Z,-5.48
2022-12-14T07:28:30.636Z,-5.65
2022-12-14T07:30:58.544Z,-5.57
2022-12-14T07:33:27.383Z,-5.72
2022-12-14T07:36:02.423Z,-5.63
2022-12-14T07:38:31.333Z,-5.66
2022-12-14T07:41:03.601Z,-5.52
2022-12-14T07:43:31.447Z,-5.39
2022-12-14T07:46:03.763Z,-5.25
2022-12-14T07:48:32.414Z,-5.21
2022-12-14T07:51:05.056Z,-5.21
2022-12-14T07:53:34.727Z,-5.14
2022-12-14T07:56:04.573Z,-5.09
2022-12-14T07:58:32.366Z,-5.02
2022-12-14T08:01:11.228Z,-5.01
2022-12-14T08:03:39.724Z,-5.01
2022-12-14T08:06:08.419Z,-5.05
2022-12-14T08:08:37.575Z,-4.91
2022-12-14T08:11:06.055Z,-5.00
2022-12-14T08:13:34.514Z,-4.92
2022-12-14T08:16:06.482Z,-4.85
2022-12-14T08:18:34.209Z,-4.86
2022-12-14T08:21:02.156Z,-4.89
2022-12-14T08:23:30.044Z,-5.08
2022-12-14T08:26:01.182Z,-5.07
2022-12-14T08:28:30.606Z,-5.09
2022-12-14T08:30:58.852Z,-5.18
2022-12-14T08:33:26.781Z,-5.01
2022-12-14T08:35:54.883Z,-4.95
2022-12-14T08:38:22.441Z,-4.80
2022-12-14T08:40:50.017Z,-4.82
2022-12-14T08:43:23.364Z,-4.73
2022-12-14T08:45:55.123Z,-4.77
2022-12-14T08:48:22.687Z,-4.72
2022-12-14T08:50:50.327Z,-4.74
2022-12-14T08:53:18.231Z,-4.76
2022-12-14T08:55:46.127Z,-4.68
2022-12-14T08:58:13.762Z,-4.52
2022-12-14T09:00:43.296Z,-4.42
2022-12-14T09:03:11.718Z,-4.34
2022-12-14T09:05:39.456Z,-4.19
2022-12-14T09:08:07.140Z,-4.04
2022-12-14T09:10:34.660Z,-3.99
2022-12-14T09:13:02.236Z,-4.04
2022-12-14T09:15:30.435Z,-3.86
2022-12-14T09:17:59.351Z,-3.73
2022-12-14T09:20:26.859Z,-3.72
2022-12-14T09:22:54.681Z,-3.92
2022-12-14T09:25:22.195Z,-3.67
2022-12-14T09:27:50.830Z,-3.48
2022-12-14T09:30:23.214Z,-3.30
2022-12-14T09:32:53.881Z,-3.50
2022-12-14T09:35:23.057Z,-3.50
2022-12-14T09:37:50.561Z,-3.56
2022-12-14T09:40:18.379Z,-3.31
2022-12-14T09:42:56.534Z,-3.24
2022-12-14T09:45:27.340Z,-3.36
2022-12-14T09:48:01.638Z,-3.48
2022-12-14T09:50:31.177Z,-3.31
2022-12-14T09:53:02.287Z,-3.23
2022-12-14T09:55:34.578Z,-3.06
2022-12-14T09:58:08.538Z,-2.98
2022-12-14T10:00:51.468Z,-3.00
2022-12-14T10:03:36.833Z,-2.70
2022-12-14T10:06:28.699Z,-2.55
2022-12-14T10:09:04.432Z,-2.43
2022-12-14T10:11:44.230Z,-2.13
2022-12-14T10:14:21.620Z,-1.88
2022-12-14T10:17:00.513Z,-1.82
2022-12-14T10:19:35.931Z,-1.57
2022-12-14T10:22:12.024Z,-1.33
2022-12-14T10:24:43.591Z,-1.15
2022-12-14T10:27:18.608Z,-1.07
2022-12-14T10:29:49.883Z,-1.04
2022-12-14T10:32:22.128Z,-0.93
2022-12-14T10:34:49.741Z,-1.03
2022-12-14T10:37:27.220Z,-0.75
2022-12-14T10:40:11.372Z,-0.69
2022-12-14T10:42:49.280Z,-0.90
2022-12-14T10:45:40.275Z,-0.76
2022-12-14T10:48:29.093Z,-1.37
2022-12-14T10:51:01.303Z,-1.36
2022-12-14T10:53:40.814Z,-1.05
2022-12-14T10:56:15.421Z,-0.90
2022-12-14T10:58:43.156Z,-0.80
2022-12-14T11:01:15.401Z,-0.76
2022-12-14T11:03:44.437Z,-0.71
2022-12-14T11:06:18.228Z,-0.70
2022-12-14T11:08:49.119Z,-0.63
2022-12-14T11:11:19.753Z,-1.03
2022-12-14T11:13:55.063Z,-0.87
2022-12-14T11:16:35.419Z,-0.90
2022-12-14T11:19:06.132Z,-0.74
2022-12-14T11:21:36.567Z,-0.65
2022-12-14T11:24:06.758Z,-0.77
2022-12-14T11:26:38.012Z,-0.74
2022-12-14T11:29:16.716Z,-0.86
2022-12-14T11:31:46.434Z,-0.67
2022-12-14T11:34:25.798Z,-0.60
2022-12-14T11:36:53.446Z,-0.59
2022-12-14T11:39:25.450Z,-0.43
2022-12-14T11:42:02.207Z,-0.23
2022-12-14T11:44:33.109Z,-0.09
2022-12-14T11:47:03.477Z,-0.02
2022-12-14T11:49:35.720Z,0.06
2022-12-14T11:52:10.606Z,0.16
2022-12-14T11:54:40.839Z,0.12
2022-12-14T11:57:18.009Z,0.05
2022-12-14T11:59:48.670Z,-0.06
2022-12-14T12:02:29.916Z,0.26
2022-12-14T12:05:03.451Z,0.50
2022-12-14T12:07:34.510Z,0.31
2022-12-14T12:10:17.463Z,-0.05
2022-12-14T12:12:54.670Z,0.51
2022-12-14T12:15:26.567Z,0.90
2022-12-14T12:18:00.387Z,1.13
2022-12-14T12:20:34.537Z,1.17
2022-12-14T12:23:07.622Z,1.17
2022-12-14T12:25:38.424Z,1.16
2022-12-14T12:28:15.282Z,1.42
2022-12-14T12:30:47.773Z,1.41
2022-12-14T12:33:24.657Z,1.48
2022-12-14T12:35:55.936Z,1.43
2022-12-14T12:38:40.635Z,1.67
2022-12-14T12:41:18.652Z,1.72
2022-12-14T12:43:53.587Z,1.82
2022-12-14T12:46:26.523Z,1.57
2022-12-14T12:49:01.516Z,1.79
2022-12-14T12:51:33.618Z,1.22
2022-12-14T12:54:03.378Z,1.49
2022-12-14T12:56:42.512Z,1.71
2022-12-14T12:59:17.392Z,1.52
2022-12-14T13:01:48.524Z,1.35
2022-12-14T13:04:26.098Z,1.41
2022-12-14T13:06:56.523Z,1.02
2022-12-14T13:09:36.003Z,0.91
2022-12-14T13:12:07.274Z,0.68
2022-12-14T13:14:41.712Z,0.87
2022-12-14T13:17:25.964Z,0.69
2022-12-14T13:19:56.042Z,0.64
2022-12-14T13:22:27.315Z,0.74
2022-12-14T13:24:59.590Z,0.66
2022-12-14T13:27:52.003Z,0.50
2022-12-14T13:30:30.932Z,0.43
2022-12-14T13:33:21.857Z,0.46
2022-12-14T13:36:19.583Z,0.37
2022-12-14T13:39:11.960Z,0.46
2022-12-14T13:41:48.614Z,0.32
2022-12-14T13:44:44.809Z,0.29
2022-12-14T13:47:16.278Z,0.21
2022-12-14T13:50:18.422Z,0.27
2022-12-14T13:52:42.953Z,0.36
2022-12-14T13:55:29.845Z,0.32
2022-12-14T13:58:10.045Z,0.28
2022-12-14T14:01:08.357Z,0.21
2022-12-14T14:03:45.032Z,0.20
2022-12-14T14:06:19.579Z,0.02
2022-12-14T14:08:50.669Z,-0.03
2022-12-14T14:11:56.063Z,0.03
2022-12-14T14:14:38.886Z,0.04
2022-12-14T14:17:14.768Z,-0.09
2022-12-14T14:19:42.720Z,-0.04
2022-12-14T14:22:24.242Z,-0.10
2022-12-14T14:25:08.951Z,-0.13
2022-12-14T14:27:39.258Z,-0.35
2022-12-14T14:30:25.627Z,-0.47
2022-12-14T14:33:07.655Z,-0.62
2022-12-14T14:35:42.679Z,-0.66
2022-12-14T14:38:24.211Z,-0.90
2022-12-14T14:43:50.689Z,-0.97
2022-12-14T14:46:22.885Z,-0.95
2022-12-14T14:48:55.024Z,-0.93
2022-12-14T14:51:28.538Z,-1.05
2022-12-14T14:55:10.631Z,-1.03
2022-12-14T14:57:34.954Z,-0.93
2022-12-14T15:00:04.453Z,-0.92
2022-12-14T15:02:34.282Z,-0.92
2022-12-14T15:05:33.253Z,-0.96
2022-12-14T15:07:55.404Z,-1.06
2022-12-14T15:10:29.635Z,-1.21
2022-12-14T15:13:01.992Z,-1.21
2022-12-14T15:15:35.768Z,-1.23
2022-12-14T15:18:16.865Z,-1.19
2022-12-14T15:20:55.474Z,-1.38
2022-12-14T15:23:23.384Z,-1.37
2022-12-14T15:25:58.955Z,-1.36
2022-12-14T15:28:28.038Z,-1.39
2022-12-14T15:30:58.316Z,-1.50
2022-12-14T15:33:29.393Z,-1.71
2022-12-14T15:36:05.482Z,-1.95
2022-12-14T15:38:34.813Z,-2.01
2022-12-14T15:41:04.518Z,-1.97
2022-12-14T15:43:33.808Z,-1.90
2022-12-14T15:46:03.541Z,-1.84
2022-12-14T15:48:34.230Z,-1.81
2022-12-14T15:51:05.290Z,-1.76
2022-12-14T15:53:37.255Z,-1.82
2022-12-14T15:56:18.285Z,-1.87
2022-12-14T15:58:46.235Z,-1.89
2022-12-14T16:01:19.765Z,-1.91
2022-12-14T16:03:50.285Z,-1.99
2022-12-14T16:06:20.176Z,-2.00
2022-12-14T16:08:53.656Z,-2.11
2022-12-14T16:11:25.723Z,-2.29
2022-12-14T16:13:53.466Z,-2.29
2022-12-14T16:16:21.273Z,-2.34
2022-12-14T16:18:51.458Z,-2.46
2022-12-14T16:21:31.864Z,-2.53
2022-12-14T16:24:00.501Z,-2.56
2022-12-14T16:26:32.897Z,-2.53
2022-12-14T16:29:09.008Z,-2.49
2022-12-14T16:31:37.817Z,-2.54
2022-12-14T16:34:09.344Z,-2.51
2022-12-14T16:36:38.382Z,-2.52
2022-12-14T16:39:07.948Z,-2.61
2022-12-14T16:41:37.370Z,-2.67
2022-12-14T16:44:08.255Z,-2.71
2022-12-14T16:46:35.782Z,-2.69
2022-12-14T16:49:20.277Z,-2.68
2022-12-14T16:52:07.465Z,-2.71
2022-12-14T16:54:35.769Z,-2.82
2022-12-14T16:57:06.505Z,-2.86
2022-12-14T16:59:40.548Z,-2.73
2022-12-14T17:02:24.678Z,-2.80
2022-12-14T17:04:52.428Z,-2.86
2022-12-14T17:07:24.948Z,-2.73
2022-12-14T17:09:54.220Z,-2.74
2022-12-14T17:12:22.211Z,-2.82
2022-12-14T17:14:50.475Z,-2.85
2022-12-14T17:17:21.975Z,-2.78
2022-12-14T17:19:50.093Z,-2.79
2022-12-14T17:22:23.634Z,-2.83
2022-12-14T17:24:51.339Z,-2.75
2022-12-14T17:27:22.008Z,-2.75
2022-12-14T17:29:50.057Z,-2.79
2022-12-14T17:32:18.803Z,-2.77
2022-12-14T17:34:47.312Z,-2.75
2022-12-14T17:37:17.513Z,-2.77
2022-12-14T17:39:46.529Z,-2.82
2022-12-14T17:42:16.266Z,-2.80
2022-12-14T17:44:47.839Z,-2.84
2022-12-14T17:47:15.618Z,-2.85
2022-12-14T17:49:43.202Z,-3.03
2022-12-14T17:52:17.839Z,-3.11
2022-12-14T17:54:47.429Z,-3.15
2022-12-14T17:57:17.425Z,-3.13
2022-12-14T17:59:47.657Z,-3.18
2022-12-14T18:02:27.939Z,-3.22
2022-12-14T18:04:55.726Z,-3.18
2022-12-14T18:07:23.447Z,-3.25
2022-12-14T18:09:53.172Z,-3.40
2022-12-14T18:12:23.824Z,-3.29
2022-12-14T18:14:52.091Z,-3.27
2022-12-14T18:17:19.851Z,-3.32
2022-12-14T18:19:47.838Z,-3.34
2022-12-14T18:22:17.020Z,-3.49
2022-12-14T18:24:44.521Z,-3.49
2022-12-14T18:27:16.395Z,-3.59
2022-12-14T18:29:43.945Z,-3.40
2022-12-14T18:32:14.530Z,-3.33
2022-12-14T18:34:42.015Z,-3.21
2022-12-14T18:37:09.574Z,-3.16
2022-12-14T18:39:37.159Z,-2.99
2022-12-14T18:42:05.201Z,-3.02
2022-12-14T18:44:34.066Z,-3.02
2022-12-14T18:47:20.374Z,-3.03
2022-12-14T18:49:49.082Z,-3.16
2022-12-14T18:52:16.559Z,-3.19
2022-12-14T18:54:44.103Z,-3.23
2022-12-14T18:57:11.575Z,-3.28
2022-12-14T18:59:42.636Z,-3.37
2022-12-14T19:02:14.539Z,-3.54
2022-12-14T19:04:42.348Z,-3.59
2022-12-14T19:07:09.876Z,-3.52
2022-12-14T19:09:37.362Z,-3.59
2022-12-14T19:12:05.082Z,-3.46
2022-12-14T19:14:32.573Z,-3.49
2022-12-14T19:17:01.396Z,-3.57
2022-12-14T19:19:35.673Z,-3.54
2022-12-14T19:22:07.735Z,-3.53
2022-12-14T19:24:35.298Z,-3.58
2022-12-14T19:27:03.981Z,-3.61
2022-12-14T19:29:31.647Z,-3.57
2022-12-14T19:32:05.065Z,-3.56
2022-12-14T19:34:34.350Z,-3.57
2022-12-14T19:37:01.878Z,-3.52
2022-12-14T19:39:29.403Z,-3.55
2022-12-14T19:41:56.961Z,-3.61
2022-12-14T19:44:24.688Z,-3.75
2022-12-14T19:46:52.248Z,-3.81
2022-12-14T19:49:22.219Z,-3.93
2022-12-14T19:51:51.144Z,-3.94
2022-12-14T19:54:18.779Z,-3.98
2022-12-14T19:56:49.178Z,-3.96
2022-12-14T19:59:16.885Z,-3.92
2022-12-14T20:01:47.948Z,-3.99
2022-12-14T20:04:16.611Z,-4.03
2022-12-14T20:06:44.179Z,-4.01
2022-12-14T20:09:16.209Z,-4.00
2022-12-14T20:11:44.367Z,-4.06
2022-12-14T20:14:13.544Z,-3.99
2022-12-14T20:16:41.336Z,-4.00
2022-12-14T20:19:09.224Z,-4.03
2022-12-14T20:21:36.719Z,-4.02
2022-12-14T20:24:04.601Z,-3.96
2022-12-14T20:26:34.049Z,-4.08
2022-12-14T20:29:04.961Z,-4.04
2022-12-14T20:31:33.058Z,-4.11
2022-12-14T20:34:01.831Z,-4.01
2022-12-14T20:36:30.057Z,-3.97
2022-12-14T20:39:01.285Z,-4.09
2022-12-14T20:41:31.543Z,-4.00
2022-12-14T20:44:01.931Z,-3.96
2022-12-14T20:46:31.526Z,-3.92
2022-12-14T20:49:01.860Z,-4.04
2022-12-14T20:51:30.859Z,-4.04
2022-12-14T20:53:58.659Z,-4.19
2022-12-14T20:56:26.396Z,-4.20
2022-12-14T20:58:54.087Z,-4.22
2022-12-14T21:01:23.469Z,-4.22
2022-12-14T21:03:51.834Z,-4.18
2022-12-14T21:06:21.474Z,-4.23
2022-12-14T21:09:09.672Z,-4.24
2022-12-14T21:11:57.186Z,-4.14
2022-12-14T21:14:26.736Z,-4.18
2022-12-14T21:16:55.621Z,-4.19
2022-12-14T21:19:23.817Z,-4.09
2022-12-14T21:21:54.120Z,-4.05
2022-12-14T21:24:53.165Z,-4.10
2022-12-14T21:27:14.979Z,-4.10
2022-12-14T21:29:42.784Z,-4.02
2022-12-14T21:32:11.751Z,-4.05
2022-12-14T21:34:40.958Z,-4.20
2022-12-14T21:37:08.931Z,-4.27
2022-12-14T21:39:36.890Z,-4.20
2022-12-14T21:42:13.244Z,-4.19
2022-12-14T21:44:41.962Z,-4.14
2022-12-14T21:47:12.937Z,-4.07
2022-12-14T21:49:42.005Z,-4.10
2022-12-14T21:52:10.718Z,-4.27
2022-12-14T21:54:38.355Z,-4.27
2022-12-14T21:57:23.623Z,-4.37
2022-12-14T21:59:51.279Z,-4.25
2022-12-14T22:02:23.088Z,-4.24
2022-12-14T22:04:56.125Z,-4.19
2022-12-14T22:07:26.613Z,-4.21
2022-12-14T22:09:54.267Z,-4.26
2022-12-14T22:12:22.035Z,-4.27
2022-12-14T22:14:51.207Z,-4.31
2022-12-14T22:17:20.126Z,-4.28
2022-12-14T22:19:48.763Z,-4.34
2022-12-14T22:22:17.198Z,-4.41
2022-12-14T22:24:45.257Z,-4.38
2022-12-14T22:27:13.230Z,-4.39
2022-12-14T22:29:40.883Z,-4.33
2022-12-14T22:32:08.649Z,-4.27
2022-12-14T22:34:37.691Z,-4.22
2022-12-14T22:37:05.263Z,-4.23
2022-12-14T22:39:32.841Z,-4.16
2022-12-14T22:42:00.441Z,-4.20
2022-12-14T22:44:28.123Z,-4.33
2022-12-14T22:46:55.794Z,-4.34
2022-12-14T22:49:23.601Z,-4.38
2022-12-14T22:51:52.434Z,-4.53
2022-12-14T22:54:23.810Z,-4.62
2022-12-14T22:56:57.258Z,-4.49
2022-12-14T22:59:29.206Z,-4.52
2022-12-14T23:01:57.059Z,-4.48
2022-12-14T23:04:24.834Z,-4.39
2022-12-14T23:06:54.758Z,-4.40
2022-12-14T23:09:40.345Z,-4.39
2022-12-14T23:12:25.728Z,-4.52
2022-12-14T23:15:11.058Z,-4.52
2022-12-14T23:17:56.305Z,-4.45
2022-12-14T23:20:41.700Z,-4.57
2022-12-14T23:23:28.770Z,-4.62
2022-12-14T23:26:14.330Z,-4.62
2022-12-14T23:28:59.810Z,-4.73
2022-12-14T23:31:45.137Z,-4.87
2022-12-14T23:34:30.443Z,-4.91
2022-12-14T23:37:20.183Z,-4.97
2022-12-14T23:40:06.881Z,-4.93
2022-12-14T23:42:52.159Z,-4.88
2022-12-14T23:45:37.395Z,-4.85
2022-12-14T23:48:22.773Z,-4.80
2022-12-14T23:51:08.063Z,-5.07
2022-12-14T23:53:53.308Z,-5.10
2022-12-14T23:56:39.948Z,-4.98
2022-12-14T23:59:31.643Z,-5.01
